sensor_id;sensor_type;location;lat;lon;timestamp;P1;durP1;ratioP1;P2;durP2;ratioP2
53479;SDS011;56133;51.012;-1.648;2022-11-04T00:01:21;21.05;;;9.88;;
53479;SDS011;56133;51.012;-1.648;2022-11-04T00:03:47;19.02;;;10.45;;
53479;SDS011;56133;51.012;-1.648;2022-11-04T00:06:13;19.98;;;11.25;;
53479;SDS011;56133;51.012;-1.648;2022-11-04T00:08:38;23.27;;;11.88;;
53479;SDS011;56133;51.012;-1.648;2022-11-04T00:11:04;21.42;;;10.98;;
53479;SDS011;56133;51.012;-1.648;2022-11-04T00:13:48;20.30;;;10.25;;
53479;SDS011;56133;51.012;-1.648;2022-11-04T00:16:14;18.67;;;8.90;;
53479;SDS011;56133;51.012;-1.648;2022-11-04T00:18:58;26.08;;;10.63;;
53479;SDS011;56133;51.012;-1.648;2022-11-04T00:21:25;21.60;;;9.55;;
53479;SDS011;56133;51.012;-1.648;2022-11-04T00:24:10;20.42;;;10.27;;
53479;SDS011;56133;51.012;-1.648;2022-11-04T00:29:39;23.83;;;10.18;;
53479;SDS011;56133;51.012;-1.648;2022-11-04T00:32:04;18.33;;;9.80;;
53479;SDS011;56133;51.012;-1.648;2022-11-04T00:34:48;20.08;;;10.00;;
53479;SDS011;56133;51.012;-1.648;2022-11-04T00:37:14;21.23;;;9.75;;
53479;SDS011;56133;51.012;-1.648;2022-11-04T00:39:39;19.75;;;9.20;;
53479;SDS011;56133;51.012;-1.648;2022-11-04T00:42:05;16.40;;;9.77;;
53479;SDS011;56133;51.012;-1.648;2022-11-04T00:44:30;18.58;;;9.02;;
53479;SDS011;56133;51.012;-1.648;2022-11-04T00:46:55;18.38;;;9.93;;
53479;SDS011;56133;51.012;-1.648;2022-11-04T00:49:21;19.83;;;10.35;;
53479;SDS011;56133;51.012;-1.648;2022-11-04T00:51:46;18.23;;;10.35;;
53479;SDS011;56133;51.012;-1.648;2022-11-04T00:54:12;23.15;;;11.00;;
53479;SDS011;56133;51.012;-1.648;2022-11-04T00:56:38;23.25;;;11.38;;
53479;SDS011;56133;51.012;-1.648;2022-11-04T00:59:04;22.65;;;11.38;;
53479;SDS011;56133;51.012;-1.648;2022-11-04T01:01:30;22.95;;;11.07;;
53479;SDS011;56133;51.012;-1.648;2022-11-04T01:03:55;23.40;;;11.85;;
53479;SDS011;56133;51.012;-1.648;2022-11-04T01:06:22;21.13;;;11.25;;
53479;SDS011;56133;51.012;-1.648;2022-11-04T01:08:54;21.38;;;11.10;;
53479;SDS011;56133;51.012;-1.648;2022-11-04T01:11:20;24.05;;;10.65;;
53479;SDS011;56133;51.012;-1.648;2022-11-04T01:13:48;20.50;;;10.60;;
53479;SDS011;56133;51.012;-1.648;2022-11-04T01:16:15;19.80;;;10.25;;
53479;SDS011;56133;51.012;-1.648;2022-11-04T01:18:40;16.98;;;9.25;;
53479;SDS011;56133;51.012;-1.648;2022-11-04T01:21:06;14.18;;;7.95;;
53479;SDS011;56133;51.012;-1.648;2022-11-04T01:23:34;15.30;;;7.00;;
53479;SDS011;56133;51.012;-1.648;2022-11-04T01:26:00;15.23;;;7.22;;
53479;SDS011;56133;51.012;-1.648;2022-11-04T01:28:26;17.20;;;6.72;;
53479;SDS011;56133;51.012;-1.648;2022-11-04T01:30:51;18.83;;;6.75;;
53479;SDS011;56133;51.012;-1.648;2022-11-04T01:33:16;11.38;;;6.07;;
53479;SDS011;56133;51.012;-1.648;2022-11-04T01:35:42;16.65;;;6.63;;
53479;SDS011;56133;51.012;-1.648;2022-11-04T01:38:08;13.25;;;6.88;;
53479;SDS011;56133;51.012;-1.648;2022-11-04T01:40:37;18.17;;;6.63;;
53479;SDS011;56133;51.012;-1.648;2022-11-04T01:46:08;14.45;;;6.22;;
53479;SDS011;56133;51.012;-1.648;2022-11-04T01:48:42;16.25;;;6.95;;
53479;SDS011;56133;51.012;-1.648;2022-11-04T01:51:07;14.93;;;6.00;;
53479;SDS011;56133;51.012;-1.648;2022-11-04T01:53:36;15.98;;;6.40;;
53479;SDS011;56133;51.012;-1.648;2022-11-04T01:56:06;15.25;;;7.00;;
53479;SDS011;56133;51.012;-1.648;2022-11-04T01:58:36;16.35;;;6.47;;
53479;SDS011;56133;51.012;-1.648;2022-11-04T02:01:05;14.95;;;7.50;;
53479;SDS011;56133;51.012;-1.648;2022-11-04T02:03:37;19.08;;;7.60;;
53479;SDS011;56133;51.012;-1.648;2022-11-04T02:06:07;17.42;;;7.25;;
53479;SDS011;56133;51.012;-1.648;2022-11-04T02:08:33;12.13;;;5.45;;
53479;SDS011;56133;51.012;-1.648;2022-11-04T02:11:00;10.98;;;4.72;;
53479;SDS011;56133;51.012;-1.648;2022-11-04T02:13:27;12.15;;;4.85;;
53479;SDS011;56133;51.012;-1.648;2022-11-04T02:19:01;9.30;;;3.60;;
53479;SDS011;56133;51.012;-1.648;2022-11-04T02:21:35;7.43;;;3.03;;
53479;SDS011;56133;51.012;-1.648;2022-11-04T02:26:57;7.75;;;3.38;;
53479;SDS011;56133;51.012;-1.648;2022-11-04T02:55:15;17.90;;;7.55;;
53479;SDS011;56133;51.012;-1.648;2022-11-04T02:57:29;19.95;;;7.38;;
53479;SDS011;56133;51.012;-1.648;2022-11-04T03:00:00;14.60;;;6.63;;
53479;SDS011;56133;51.012;-1.648;2022-11-04T03:03:11;13.10;;;5.78;;
53479;SDS011;56133;51.012;-1.648;2022-11-04T03:05:20;8.45;;;4.35;;
53479;SDS011;56133;51.012;-1.648;2022-11-04T03:07:50;16.55;;;5.35;;
53479;SDS011;56133;51.012;-1.648;2022-11-04T03:10:19;14.43;;;5.90;;
53479;SDS011;56133;51.012;-1.648;2022-11-04T03:12:56;13.57;;;6.03;;
53479;SDS011;56133;51.012;-1.648;2022-11-04T03:15:35;15.85;;;6.43;;
53479;SDS011;56133;51.012;-1.648;2022-11-04T03:20:38;22.10;;;7.22;;
53479;SDS011;56133;51.012;-1.648;2022-11-04T03:23:05;19.23;;;7.55;;
53479;SDS011;56133;51.012;-1.648;2022-11-04T03:25:37;20.30;;;8.60;;
53479;SDS011;56133;51.012;-1.648;2022-11-04T03:30:50;19.40;;;9.07;;
53479;SDS011;56133;51.012;-1.648;2022-11-04T03:35:47;20.35;;;11.00;;
53479;SDS011;56133;51.012;-1.648;2022-11-04T03:38:15;23.77;;;10.85;;
53479;SDS011;56133;51.012;-1.648;2022-11-04T03:40:41;26.60;;;10.50;;
53479;SDS011;56133;51.012;-1.648;2022-11-04T03:43:10;23.55;;;11.23;;
53479;SDS011;56133;51.012;-1.648;2022-11-04T03:45:40;29.13;;;11.82;;
53479;SDS011;56133;51.012;-1.648;2022-11-04T03:48:06;26.02;;;10.80;;
53479;SDS011;56133;51.012;-1.648;2022-11-04T03:50:37;21.02;;;11.20;;
53479;SDS011;56133;51.012;-1.648;2022-11-04T03:53:06;26.02;;;12.13;;
53479;SDS011;56133;51.012;-1.648;2022-11-04T03:55:39;26.30;;;13.27;;
53479;SDS011;56133;51.012;-1.648;2022-11-04T04:01:05;24.77;;;11.68;;
53479;SDS011;56133;51.012;-1.648;2022-11-04T04:03:47;26.63;;;11.63;;
53479;SDS011;56133;51.012;-1.648;2022-11-04T04:06:22;25.90;;;10.93;;
53479;SDS011;56133;51.012;-1.648;2022-11-04T04:08:52;18.73;;;9.52;;
53479;SDS011;56133;51.012;-1.648;2022-11-04T04:11:29;22.27;;;9.63;;
53479;SDS011;56133;51.012;-1.648;2022-11-04T04:14:21;20.13;;;8.65;;
53479;SDS011;56133;51.012;-1.648;2022-11-04T04:19:33;25.50;;;10.43;;
53479;SDS011;56133;51.012;-1.648;2022-11-04T04:22:02;23.50;;;9.63;;
53479;SDS011;56133;51.012;-1.648;2022-11-04T04:24:38;25.08;;;10.07;;
53479;SDS011;56133;51.012;-1.648;2022-11-04T04:27:26;27.27;;;9.82;;
53479;SDS011;56133;51.012;-1.648;2022-11-04T04:29:54;19.85;;;9.90;;
53479;SDS011;56133;51.012;-1.648;2022-11-04T04:32:22;23.02;;;9.38;;
53479;SDS011;56133;51.012;-1.648;2022-11-04T04:34:50;24.70;;;9.00;;
53479;SDS011;56133;51.012;-1.648;2022-11-04T04:37:36;21.15;;;8.80;;
53479;SDS011;56133;51.012;-1.648;2022-11-04T04:40:04;25.15;;;8.73;;
53479;SDS011;56133;51.012;-1.648;2022-11-04T04:42:52;18.20;;;8.15;;
53479;SDS011;56133;51.012;-1.648;2022-11-04T04:45:36;18.27;;;8.02;;
53479;SDS011;56133;51.012;-1.648;2022-11-04T04:48:07;22.67;;;7.25;;
53479;SDS011;56133;51.012;-1.648;2022-11-04T04:50:48;20.98;;;7.43;;
53479;SDS011;56133;51.012;-1.648;2022-11-04T04:53:16;15.38;;;6.30;;
53479;SDS011;56133;51.012;-1.648;2022-11-04T04:55:42;18.10;;;6.93;;
53479;SDS011;56133;51.012;-1.648;2022-11-04T04:58:07;18.35;;;6.90;;
53479;SDS011;56133;51.012;-1.648;2022-11-04T05:00:33;17.30;;;6.25;;
53479;SDS011;56133;51.012;-1.648;2022-11-04T05:02:59;15.10;;;5.63;;
53479;SDS011;56133;51.012;-1.648;2022-11-04T05:05:24;16.17;;;6.20;;
53479;SDS011;56133;51.012;-1.648;2022-11-04T05:07:50;17.08;;;6.10;;
53479;SDS011;56133;51.012;-1.648;2022-11-04T05:10:16;18.67;;;4.88;;
53479;SDS011;56133;51.012;-1.648;2022-11-04T05:12:42;15.55;;;5.57;;
53479;SDS011;56133;51.012;-1.648;2022-11-04T05:15:26;15.15;;;5.28;;
53479;SDS011;56133;51.012;-1.648;2022-11-04T05:17:53;15.25;;;5.25;;
53479;SDS011;56133;51.012;-1.648;2022-11-04T05:20:20;15.77;;;4.97;;
53479;SDS011;56133;51.012;-1.648;2022-11-04T05:22:46;13.55;;;4.78;;
53479;SDS011;56133;51.012;-1.648;2022-11-04T05:25:12;16.85;;;5.40;;
53479;SDS011;56133;51.012;-1.648;2022-11-04T05:27:37;12.55;;;4.57;;
53479;SDS011;56133;51.012;-1.648;2022-11-04T05:30:03;15.55;;;5.30;;
53479;SDS011;56133;51.012;-1.648;2022-11-04T05:32:29;17.00;;;5.80;;
53479;SDS011;56133;51.012;-1.648;2022-11-04T05:34:57;21.20;;;6.13;;
53479;SDS011;56133;51.012;-1.648;2022-11-04T05:37:23;17.85;;;5.97;;
53479;SDS011;56133;51.012;-1.648;2022-11-04T05:39:48;18.60;;;6.13;;
53479;SDS011;56133;51.012;-1.648;2022-11-04T05:42:14;18.48;;;6.70;;
53479;SDS011;56133;51.012;-1.648;2022-11-04T05:44:39;18.65;;;7.35;;
53479;SDS011;56133;51.012;-1.648;2022-11-04T05:47:05;25.50;;;8.18;;
53479;SDS011;56133;51.012;-1.648;2022-11-04T05:49:30;25.25;;;8.45;;
53479;SDS011;56133;51.012;-1.648;2022-11-04T05:51:56;26.17;;;9.60;;
53479;SDS011;56133;51.012;-1.648;2022-11-04T05:54:22;26.65;;;10.18;;
53479;SDS011;56133;51.012;-1.648;2022-11-04T05:56:47;26.83;;;10.88;;
53479;SDS011;56133;51.012;-1.648;2022-11-04T05:59:13;32.92;;;12.02;;
53479;SDS011;56133;51.012;-1.648;2022-11-04T06:01:39;32.00;;;12.60;;
53479;SDS011;56133;51.012;-1.648;2022-11-04T06:04:06;38.05;;;13.63;;
53479;SDS011;56133;51.012;-1.648;2022-11-04T06:06:38;33.50;;;13.82;;
53479;SDS011;56133;51.012;-1.648;2022-11-04T06:09:03;39.97;;;14.40;;
53479;SDS011;56133;51.012;-1.648;2022-11-04T06:11:29;37.55;;;14.23;;
53479;SDS011;56133;51.012;-1.648;2022-11-04T06:13:57;38.08;;;15.20;;
53479;SDS011;56133;51.012;-1.648;2022-11-04T06:16:23;33.15;;;13.50;;
53479;SDS011;56133;51.012;-1.648;2022-11-04T06:18:49;41.45;;;15.18;;
53479;SDS011;56133;51.012;-1.648;2022-11-04T06:23:43;35.72;;;13.43;;
53479;SDS011;56133;51.012;-1.648;2022-11-04T06:26:09;34.53;;;13.82;;
53479;SDS011;56133;51.012;-1.648;2022-11-04T06:28:36;37.90;;;13.23;;
53479;SDS011;56133;51.012;-1.648;2022-11-04T06:31:03;32.85;;;12.35;;
53479;SDS011;56133;51.012;-1.648;2022-11-04T06:33:30;37.55;;;13.85;;
53479;SDS011;56133;51.012;-1.648;2022-11-04T06:35:56;40.00;;;14.77;;
53479;SDS011;56133;51.012;-1.648;2022-11-04T06:38:23;42.17;;;16.13;;
53479;SDS011;56133;51.012;-1.648;2022-11-04T06:40:48;39.80;;;16.23;;
53479;SDS011;56133;51.012;-1.648;2022-11-04T06:43:14;35.25;;;15.02;;
53479;SDS011;56133;51.012;-1.648;2022-11-04T06:45:39;47.78;;;16.85;;
53479;SDS011;56133;51.012;-1.648;2022-11-04T06:48:05;41.30;;;16.55;;
53479;SDS011;56133;51.012;-1.648;2022-11-04T06:50:31;42.70;;;15.75;;
53479;SDS011;56133;51.012;-1.648;2022-11-04T06:52:56;37.20;;;15.98;;
53479;SDS011;56133;51.012;-1.648;2022-11-04T06:55:22;43.20;;;17.20;;
53479;SDS011;56133;51.012;-1.648;2022-11-04T06:57:47;44.70;;;17.77;;
53479;SDS011;56133;51.012;-1.648;2022-11-04T07:00:13;48.67;;;18.25;;
53479;SDS011;56133;51.012;-1.648;2022-11-04T07:02:39;49.92;;;18.90;;
53479;SDS011;56133;51.012;-1.648;2022-11-04T07:05:04;49.50;;;19.02;;
53479;SDS011;56133;51.012;-1.648;2022-11-04T07:07:31;44.80;;;18.23;;
53479;SDS011;56133;51.012;-1.648;2022-11-04T07:09:57;47.10;;;17.42;;
53479;SDS011;56133;51.012;-1.648;2022-11-04T07:12:22;45.00;;;17.45;;
53479;SDS011;56133;51.012;-1.648;2022-11-04T07:14:48;48.63;;;19.33;;
53479;SDS011;56133;51.012;-1.648;2022-11-04T07:17:15;48.72;;;18.83;;
53479;SDS011;56133;51.012;-1.648;2022-11-04T07:19:41;51.20;;;20.55;;
53479;SDS011;56133;51.012;-1.648;2022-11-04T07:22:06;51.22;;;21.55;;
53479;SDS011;56133;51.012;-1.648;2022-11-04T07:24:32;56.15;;;22.42;;
53479;SDS011;56133;51.012;-1.648;2022-11-04T07:26:58;49.88;;;21.33;;
53479;SDS011;56133;51.012;-1.648;2022-11-04T07:29:23;61.25;;;22.70;;
53479;SDS011;56133;51.012;-1.648;2022-11-04T07:31:49;49.40;;;23.00;;
53479;SDS011;56133;51.012;-1.648;2022-11-04T07:34:15;58.97;;;23.98;;
53479;SDS011;56133;51.012;-1.648;2022-11-04T07:36:40;57.35;;;24.52;;
53479;SDS011;56133;51.012;-1.648;2022-11-04T07:39:06;58.53;;;23.88;;
53479;SDS011;56133;51.012;-1.648;2022-11-04T07:41:32;61.58;;;26.20;;
53479;SDS011;56133;51.012;-1.648;2022-11-04T07:43:57;53.47;;;24.27;;
53479;SDS011;56133;51.012;-1.648;2022-11-04T07:46:25;58.13;;;24.70;;
53479;SDS011;56133;51.012;-1.648;2022-11-04T07:48:50;65.80;;;27.15;;
53479;SDS011;56133;51.012;-1.648;2022-11-04T07:51:17;59.78;;;25.48;;
53479;SDS011;56133;51.012;-1.648;2022-11-04T07:53:44;62.78;;;26.92;;
53479;SDS011;56133;51.012;-1.648;2022-11-04T07:56:10;55.38;;;25.42;;
53479;SDS011;56133;51.012;-1.648;2022-11-04T07:58:37;61.47;;;25.80;;
53479;SDS011;56133;51.012;-1.648;2022-11-04T08:01:04;53.92;;;24.98;;
53479;SDS011;56133;51.012;-1.648;2022-11-04T08:03:33;61.20;;;25.02;;
53479;SDS011;56133;51.012;-1.648;2022-11-04T08:06:00;58.30;;;25.75;;
53479;SDS011;56133;51.012;-1.648;2022-11-04T08:08:27;60.10;;;27.30;;
53479;SDS011;56133;51.012;-1.648;2022-11-04T08:10:53;58.13;;;26.83;;
53479;SDS011;56133;51.012;-1.648;2022-11-04T08:13:21;60.67;;;26.23;;
53479;SDS011;56133;51.012;-1.648;2022-11-04T08:15:47;64.53;;;26.15;;
53479;SDS011;56133;51.012;-1.648;2022-11-04T08:18:13;52.28;;;24.15;;
53479;SDS011;56133;51.012;-1.648;2022-11-04T08:20:38;59.45;;;23.38;;
53479;SDS011;56133;51.012;-1.648;2022-11-04T08:23:04;52.03;;;24.35;;
53479;SDS011;56133;51.012;-1.648;2022-11-04T08:25:29;54.17;;;24.05;;
53479;SDS011;56133;51.012;-1.648;2022-11-04T08:27:55;51.22;;;22.83;;
53479;SDS011;56133;51.012;-1.648;2022-11-04T08:30:21;52.38;;;21.98;;
53479;SDS011;56133;51.012;-1.648;2022-11-04T08:32:46;52.15;;;22.33;;
53479;SDS011;56133;51.012;-1.648;2022-11-04T08:35:12;47.88;;;20.17;;
53479;SDS011;56133;51.012;-1.648;2022-11-04T08:37:37;48.47;;;19.92;;
53479;SDS011;56133;51.012;-1.648;2022-11-04T08:40:03;46.20;;;21.85;;
53479;SDS011;56133;51.012;-1.648;2022-11-04T08:42:29;48.45;;;21.25;;
53479;SDS011;56133;51.012;-1.648;2022-11-04T08:44:55;53.58;;;20.88;;
53479;SDS011;56133;51.012;-1.648;2022-11-04T08:47:20;42.90;;;20.25;;
53479;SDS011;56133;51.012;-1.648;2022-11-04T08:49:46;47.78;;;19.90;;
53479;SDS011;56133;51.012;-1.648;2022-11-04T08:52:11;41.45;;;18.77;;
53479;SDS011;56133;51.012;-1.648;2022-11-04T08:54:37;44.30;;;17.90;;
53479;SDS011;56133;51.012;-1.648;2022-11-04T08:57:02;41.45;;;17.67;;
53479;SDS011;56133;51.012;-1.648;2022-11-04T08:59:28;38.03;;;18.02;;
53479;SDS011;56133;51.012;-1.648;2022-11-04T09:01:54;43.33;;;16.35;;
53479;SDS011;56133;51.012;-1.648;2022-11-04T09:04:19;41.05;;;17.30;;
53479;SDS011;56133;51.012;-1.648;2022-11-04T09:06:45;39.63;;;16.25;;
53479;SDS011;56133;51.012;-1.648;2022-11-04T09:09:14;37.58;;;15.88;;
53479;SDS011;56133;51.012;-1.648;2022-11-04T09:11:42;39.83;;;16.00;;
53479;SDS011;56133;51.012;-1.648;2022-11-04T09:14:09;39.88;;;17.83;;
53479;SDS011;56133;51.012;-1.648;2022-11-04T09:16:36;45.83;;;18.10;;
53479;SDS011;56133;51.012;-1.648;2022-11-04T09:19:03;38.85;;;18.13;;
53479;SDS011;56133;51.012;-1.648;2022-11-04T09:21:29;39.78;;;16.73;;
53479;SDS011;56133;51.012;-1.648;2022-11-04T09:23:54;36.13;;;17.05;;
53479;SDS011;56133;51.012;-1.648;2022-11-04T09:26:21;36.05;;;15.98;;
53479;SDS011;56133;51.012;-1.648;2022-11-04T09:28:54;35.45;;;14.25;;
53479;SDS011;56133;51.012;-1.648;2022-11-04T09:31:21;35.25;;;14.60;;
53479;SDS011;56133;51.012;-1.648;2022-11-04T09:33:48;33.78;;;14.15;;
53479;SDS011;56133;51.012;-1.648;2022-11-04T09:36:14;30.13;;;13.45;;
53479;SDS011;56133;51.012;-1.648;2022-11-04T09:38:40;33.58;;;14.00;;
53479;SDS011;56133;51.012;-1.648;2022-11-04T09:41:07;28.70;;;12.23;;
53479;SDS011;56133;51.012;-1.648;2022-11-04T09:46:33;32.72;;;12.43;;
53479;SDS011;56133;51.012;-1.648;2022-11-04T09:49:01;26.70;;;11.98;;
53479;SDS011;56133;51.012;-1.648;2022-11-04T09:51:31;27.88;;;11.32;;
53479;SDS011;56133;51.012;-1.648;2022-11-04T09:53:57;28.52;;;11.20;;
53479;SDS011;56133;51.012;-1.648;2022-11-04T09:56:28;32.40;;;10.73;;
53479;SDS011;56133;51.012;-1.648;2022-11-04T09:59:00;25.48;;;10.63;;
53479;SDS011;56133;51.012;-1.648;2022-11-04T10:01:37;23.50;;;9.27;;
53479;SDS011;56133;51.012;-1.648;2022-11-04T10:04:18;25.95;;;10.98;;
53479;SDS011;56133;51.012;-1.648;2022-11-04T10:28:48;15.77;;;5.95;;
53479;SDS011;56133;51.012;-1.648;2022-11-04T10:31:19;11.93;;;5.45;;
53479;SDS011;56133;51.012;-1.648;2022-11-04T10:33:46;15.40;;;4.65;;
53479;SDS011;56133;51.012;-1.648;2022-11-04T10:36:16;16.40;;;5.43;;
53479;SDS011;56133;51.012;-1.648;2022-11-04T10:38:51;11.93;;;4.30;;
53479;SDS011;56133;51.012;-1.648;2022-11-04T10:41:23;17.70;;;4.40;;
53479;SDS011;56133;51.012;-1.648;2022-11-04T10:44:04;12.40;;;4.60;;
53479;SDS011;56133;51.012;-1.648;2022-11-04T10:46:38;14.00;;;3.90;;
53479;SDS011;56133;51.012;-1.648;2022-11-04T10:52:01;10.52;;;3.03;;
53479;SDS011;56133;51.012;-1.648;2022-11-04T10:54:27;10.23;;;2.88;;
53479;SDS011;56133;51.012;-1.648;2022-11-04T10:56:58;8.55;;;2.70;;
53479;SDS011;56133;51.012;-1.648;2022-11-04T10:59:28;10.88;;;2.92;;
53479;SDS011;56133;51.012;-1.648;2022-11-04T11:01:59;8.60;;;2.53;;
53479;SDS011;56133;51.012;-1.648;2022-11-04T11:04:33;10.10;;;2.83;;
53479;SDS011;56133;51.012;-1.648;2022-11-04T11:07:01;10.50;;;2.78;;
53479;SDS011;56133;51.012;-1.648;2022-11-04T11:09:53;9.18;;;2.53;;
53479;SDS011;56133;51.012;-1.648;2022-11-04T11:12:22;8.85;;;2.45;;
53479;SDS011;56133;51.012;-1.648;2022-11-04T11:14:54;10.05;;;2.30;;
53479;SDS011;56133;51.012;-1.648;2022-11-04T11:17:25;10.48;;;2.33;;
53479;SDS011;56133;51.012;-1.648;2022-11-04T11:25:12;7.72;;;2.17;;
53479;SDS011;56133;51.012;-1.648;2022-11-04T11:27:44;8.68;;;2.00;;
53479;SDS011;56133;51.012;-1.648;2022-11-04T11:30:26;8.32;;;1.60;;
53479;SDS011;56133;51.012;-1.648;2022-11-04T11:32:57;6.10;;;1.50;;
53479;SDS011;56133;51.012;-1.648;2022-11-04T11:35:30;5.88;;;1.33;;
53479;SDS011;56133;51.012;-1.648;2022-11-04T11:37:59;5.82;;;1.40;;
53479;SDS011;56133;51.012;-1.648;2022-11-04T11:40:29;8.07;;;2.00;;
53479;SDS011;56133;51.012;-1.648;2022-11-04T11:42:58;11.63;;;2.17;;
53479;SDS011;56133;51.012;-1.648;2022-11-04T11:45:25;9.48;;;2.47;;
53479;SDS011;56133;51.012;-1.648;2022-11-04T11:47:52;8.32;;;1.90;;
53479;SDS011;56133;51.012;-1.648;2022-11-04T11:50:28;9.75;;;2.38;;
53479;SDS011;56133;51.012;-1.648;2022-11-04T11:53:06;7.72;;;1.85;;
53479;SDS011;56133;51.012;-1.648;2022-11-04T11:55:44;6.35;;;1.08;;
53479;SDS011;56133;51.012;-1.648;2022-11-04T12:03:50;7.63;;;1.70;;
53479;SDS011;56133;51.012;-1.648;2022-11-04T12:06:38;9.18;;;1.55;;
53479;SDS011;56133;51.012;-1.648;2022-11-04T12:14:23;3.63;;;0.73;;
53479;SDS011;56133;51.012;-1.648;2022-11-04T12:24:50;8.20;;;1.33;;
53479;SDS011;56133;51.012;-1.648;2022-11-04T12:27:38;5.80;;;1.08;;
53479;SDS011;56133;51.012;-1.648;2022-11-04T12:32:44;5.15;;;0.90;;
53479;SDS011;56133;51.012;-1.648;2022-11-04T12:38:02;9.60;;;1.17;;
53479;SDS011;56133;51.012;-1.648;2022-11-04T12:46:00;4.65;;;0.70;;
53479;SDS011;56133;51.012;-1.648;2022-11-04T12:56:52;5.00;;;0.80;;
53479;SDS011;56133;51.012;-1.648;2022-11-04T13:02:29;6.25;;;1.10;;
53479;SDS011;56133;51.012;-1.648;2022-11-04T13:08:27;6.75;;;1.02;;
53479;SDS011;56133;51.012;-1.648;2022-11-04T13:13:51;4.97;;;1.05;;
53479;SDS011;56133;51.012;-1.648;2022-11-04T13:16:33;4.72;;;0.85;;
53479;SDS011;56133;51.012;-1.648;2022-11-04T13:19:06;5.63;;;0.80;;
53479;SDS011;56133;51.012;-1.648;2022-11-04T13:21:44;3.40;;;0.68;;
53479;SDS011;56133;51.012;-1.648;2022-11-04T13:26:54;4.05;;;0.70;;
53479;SDS011;56133;51.012;-1.648;2022-11-04T13:29:27;3.70;;;0.90;;
53479;SDS011;56133;51.012;-1.648;2022-11-04T13:38:02;4.75;;;0.98;;
53479;SDS011;56133;51.012;-1.648;2022-11-04T13:43:29;7.75;;;1.48;;
53479;SDS011;56133;51.012;-1.648;2022-11-04T13:46:17;5.03;;;1.20;;
53479;SDS011;56133;51.012;-1.648;2022-11-04T13:51:20;8.93;;;1.42;;
53479;SDS011;56133;51.012;-1.648;2022-11-04T13:53:46;5.68;;;0.73;;
53479;SDS011;56133;51.012;-1.648;2022-11-04T13:59:01;5.55;;;1.00;;
53479;SDS011;56133;51.012;-1.648;2022-11-04T14:01:28;94.80;;;8.18;;
53479;SDS011;56133;51.012;-1.648;2022-11-04T14:14:38;4.78;;;0.95;;
53479;SDS011;56133;51.012;-1.648;2022-11-04T14:17:04;3.88;;;1.00;;
53479;SDS011;56133;51.012;-1.648;2022-11-04T14:22:46;3.03;;;0.90;;
53479;SDS011;56133;51.012;-1.648;2022-11-04T14:27:57;4.75;;;1.33;;
53479;SDS011;56133;51.012;-1.648;2022-11-04T14:30:33;8.18;;;1.20;;
53479;SDS011;56133;51.012;-1.648;2022-11-04T14:33:05;4.60;;;1.10;;
53479;SDS011;56133;51.012;-1.648;2022-11-04T14:35:32;4.63;;;1.13;;
53479;SDS011;56133;51.012;-1.648;2022-11-04T14:38:02;6.97;;;1.55;;
53479;SDS011;56133;51.012;-1.648;2022-11-04T14:40:48;6.78;;;1.42;;
53479;SDS011;56133;51.012;-1.648;2022-11-04T14:43:29;4.22;;;1.30;;
53479;SDS011;56133;51.012;-1.648;2022-11-04T14:45:58;5.25;;;1.17;;
53479;SDS011;56133;51.012;-1.648;2022-11-04T14:48:25;8.32;;;1.20;;
53479;SDS011;56133;51.012;-1.648;2022-11-04T14:50:52;4.80;;;1.15;;
53479;SDS011;56133;51.012;-1.648;2022-11-04T14:56:03;8.32;;;1.10;;
53479;SDS011;56133;51.012;-1.648;2022-11-04T15:01:21;4.22;;;0.95;;
53479;SDS011;56133;51.012;-1.648;2022-11-04T15:03:48;6.47;;;1.35;;
53479;SDS011;56133;51.012;-1.648;2022-11-04T15:06:22;7.45;;;1.30;;
53479;SDS011;56133;51.012;-1.648;2022-11-04T15:08:49;7.78;;;1.88;;
53479;SDS011;56133;51.012;-1.648;2022-11-04T15:11:16;7.38;;;1.42;;
53479;SDS011;56133;51.012;-1.648;2022-11-04T15:14:10;5.90;;;1.52;;
53479;SDS011;56133;51.012;-1.648;2022-11-04T15:16:39;7.20;;;1.50;;
53479;SDS011;56133;51.012;-1.648;2022-11-04T15:19:06;5.25;;;1.20;;
53479;SDS011;56133;51.012;-1.648;2022-11-04T15:21:38;6.28;;;1.48;;
53479;SDS011;56133;51.012;-1.648;2022-11-04T15:24:04;5.25;;;1.50;;
53479;SDS011;56133;51.012;-1.648;2022-11-04T15:26:31;5.93;;;2.20;;
53479;SDS011;56133;51.012;-1.648;2022-11-04T15:28:59;4.80;;;1.83;;
53479;SDS011;56133;51.012;-1.648;2022-11-04T15:31:31;6.45;;;2.00;;
53479;SDS011;56133;51.012;-1.648;2022-11-04T15:33:59;6.22;;;3.20;;
53479;SDS011;56133;51.012;-1.648;2022-11-04T15:36:45;9.55;;;3.72;;
53479;SDS011;56133;51.012;-1.648;2022-11-04T15:41:37;7.57;;;1.88;;
53479;SDS011;56133;51.012;-1.648;2022-11-04T15:44:27;7.80;;;1.27;;
53479;SDS011;56133;51.012;-1.648;2022-11-04T15:47:03;7.85;;;1.40;;
53479;SDS011;56133;51.012;-1.648;2022-11-04T15:49:46;6.50;;;1.35;;
53479;SDS011;56133;51.012;-1.648;2022-11-04T15:52:17;7.85;;;1.75;;
53479;SDS011;56133;51.012;-1.648;2022-11-04T15:54:44;7.85;;;2.22;;
53479;SDS011;56133;51.012;-1.648;2022-11-04T15:59:45;7.60;;;3.10;;
53479;SDS011;56133;51.012;-1.648;2022-11-04T16:02:28;10.38;;;4.25;;
53479;SDS011;56133;51.012;-1.648;2022-11-04T16:12:58;9.05;;;2.65;;
53479;SDS011;56133;51.012;-1.648;2022-11-04T16:23:57;10.40;;;3.50;;
53479;SDS011;56133;51.012;-1.648;2022-11-04T16:26:39;8.80;;;2.70;;
53479;SDS011;56133;51.012;-1.648;2022-11-04T16:29:09;9.73;;;3.70;;
53479;SDS011;56133;51.012;-1.648;2022-11-04T16:31:42;12.70;;;6.13;;
53479;SDS011;56133;51.012;-1.648;2022-11-04T16:34:12;11.23;;;5.38;;
53479;SDS011;56133;51.012;-1.648;2022-11-04T16:36:38;13.73;;;5.20;;
53479;SDS011;56133;51.012;-1.648;2022-11-04T16:39:04;13.48;;;6.53;;
53479;SDS011;56133;51.012;-1.648;2022-11-04T16:41:34;20.38;;;9.27;;
53479;SDS011;56133;51.012;-1.648;2022-11-04T16:44:02;15.20;;;6.45;;
53479;SDS011;56133;51.012;-1.648;2022-11-04T16:46:29;11.85;;;5.80;;
53479;SDS011;56133;51.012;-1.648;2022-11-04T16:48:57;13.13;;;5.10;;
53479;SDS011;56133;51.012;-1.648;2022-11-04T16:51:22;13.25;;;4.63;;
53479;SDS011;56133;51.012;-1.648;2022-11-04T16:53:49;15.60;;;4.70;;
53479;SDS011;56133;51.012;-1.648;2022-11-04T16:56:16;19.13;;;6.72;;
53479;SDS011;56133;51.012;-1.648;2022-11-04T16:58:45;13.30;;;5.20;;
53479;SDS011;56133;51.012;-1.648;2022-11-04T17:01:11;12.73;;;4.60;;
53479;SDS011;56133;51.012;-1.648;2022-11-04T17:03:37;13.80;;;5.57;;
53479;SDS011;56133;51.012;-1.648;2022-11-04T17:06:13;13.95;;;5.28;;
53479;SDS011;56133;51.012;-1.648;2022-11-04T17:08:39;13.27;;;6.93;;
53479;SDS011;56133;51.012;-1.648;2022-11-04T17:11:06;18.30;;;8.50;;
53479;SDS011;56133;51.012;-1.648;2022-11-04T17:13:32;14.77;;;7.10;;
53479;SDS011;56133;51.012;-1.648;2022-11-04T17:15:58;20.67;;;8.55;;
53479;SDS011;56133;51.012;-1.648;2022-11-04T17:18:24;24.77;;;11.18;;
53479;SDS011;56133;51.012;-1.648;2022-11-04T17:20:50;28.08;;;14.80;;
53479;SDS011;56133;51.012;-1.648;2022-11-04T17:23:18;25.83;;;14.85;;
53479;SDS011;56133;51.012;-1.648;2022-11-04T17:25:45;27.80;;;11.30;;
53479;SDS011;56133;51.012;-1.648;2022-11-04T17:28:10;16.50;;;7.38;;
53479;SDS011;56133;51.012;-1.648;2022-11-04T17:30:38;14.35;;;7.18;;
53479;SDS011;56133;51.012;-1.648;2022-11-04T17:33:04;26.33;;;9.75;;
53479;SDS011;56133;51.012;-1.648;2022-11-04T17:35:32;17.67;;;9.07;;
53479;SDS011;56133;51.012;-1.648;2022-11-04T17:37:59;15.80;;;7.57;;
53479;SDS011;56133;51.012;-1.648;2022-11-04T17:40:24;12.73;;;6.53;;
53479;SDS011;56133;51.012;-1.648;2022-11-04T17:42:52;16.80;;;8.38;;
53479;SDS011;56133;51.012;-1.648;2022-11-04T17:45:37;14.60;;;10.07;;